Time;durP1;ratioP1;P1;durP2;ratioP2;P2;SDS_P1;SDS_P2;PMS_P1;PMS_P2;Temp;Humidity;BMP_temperature;BMP_pressure;BME280_temperature;BME280_humidity;BME280_pressure;Samples;Min_cycle;Max_cycle;Signal;HPM_P1;HPM_P2
2022/03/26 00:01:03;;;;;;;36.67;20.23;;;7.90;39.80;;;;;;5012839;28;20210;-89
2022/03/26 00:03:30;;;;;;;29.63;19.97;;;7.60;39.40;;;;;;5013502;28;20235;-90
2022/03/26 00:05:57;;;;;;;28.90;18.90;;;7.30;40.90;;;;;;5017125;28;20223;-90
2022/03/26 00:08:24;;;;;;;30.23;19.40;;;7.00;42.90;;;;;;5008908;28;20233;-89
2022/03/26 00:10:53;;;;;;;29.80;19.07;;;7.20;46.10;;;;;;5012758;28;20203;-91
2022/03/26 00:13:22;;;;;;;28.83;18.50;;;7.40;45.50;;;;;;5017931;28;20288;-89
2022/03/26 00:15:50;;;;;;;26.30;17.47;;;7.50;45.20;;;;;;5013091;28;20198;-89
2022/03/26 00:18:18;;;;;;;30.90;19.27;;;7.50;44.30;;;;;;5015779;28;20340;-90
2022/03/26 00:20:46;;;;;;;28.37;18.57;;;7.30;43.10;;;;;;5015912;28;20226;-89
2022/03/26 00:23:13;;;;;;;28.13;17.50;;;7.10;44.30;;;;;;5008354;28;20289;-89
2022/03/26 00:25:41;;;;;;;28.20;17.80;;;7.20;46.10;;;;;;5015205;28;20196;-89
2022/03/26 00:28:10;;;;;;;27.90;17.83;;;7.40;46.10;;;;;;5013958;28;20313;-90
2022/03/26 00:30:37;;;;;;;28.00;18.03;;;7.40;44.60;;;;;;5025343;28;20204;-89
2022/03/26 00:33:04;;;;;;;29.77;19.17;;;7.50;44.30;;;;;;5003885;28;20231;-89
2022/03/26 00:35:31;;;;;;;26.77;18.23;;;7.50;44.90;;;;;;5016617;28;20211;-90
2022/03/26 00:37:58;;;;;;;31.00;19.27;;;7.50;45.00;;;;;;5012112;28;20227;-90
2022/03/26 00:40:26;;;;;;;37.93;21.03;;;7.50;44.20;;;;;;5012201;28;20651;-90
2022/03/26 00:42:53;;;;;;;35.67;20.60;;;7.40;43.60;;;;;;5016538;28;20234;-89
2022/03/26 00:45:24;;;;;;;37.10;20.67;;;7.10;44.60;;;;;;5000369;28;20200;-89
2022/03/26 00:47:52;;;;;;;35.90;19.40;;;6.90;45.80;;;;;;5016368;28;20209;-89
2022/03/26 00:50:19;;;;;;;34.80;19.90;;;6.90;47.00;;;;;;5011679;28;20262;-89
2022/03/26 00:52:47;;;;;;;35.23;20.50;;;7.00;46.00;;;;;;5007027;28;20224;-89
2022/03/26 00:55:14;;;;;;;31.83;19.73;;;7.10;46.60;;;;;;5007967;28;20250;-90
2022/03/26 00:57:41;;;;;;;37.33;20.97;;;7.20;46.10;;;;;;5011701;28;20211;-90
2022/03/26 01:00:10;;;;;;;31.57;19.50;;;7.20;46.10;;;;;;5006661;28;20208;-90
2022/03/26 01:02:40;;;;;;;32.60;19.33;;;7.20;46.10;;;;;;5012412;28;20295;-90
2022/03/26 01:05:10;;;;;;;26.87;18.13;;;7.20;46.10;;;;;;5007249;28;20199;-90
2022/03/26 01:07:38;;;;;;;29.07;18.73;;;7.20;46.10;;;;;;5003137;28;20604;-90
2022/03/26 01:12:47;;;;;;;31.97;20.97;;;6.70;45.70;;;;;;5020615;28;20222;-87
2022/03/26 01:15:16;;;;;;;42.67;20.47;;;6.20;48.40;;;;;;5015911;28;20261;-89
2022/03/26 01:17:44;;;;;;;35.77;20.70;;;6.00;51.60;;;;;;5014371;28;20233;-89
2022/03/26 01:20:12;;;;;;;31.37;18.93;;;6.10;51.90;;;;;;5012664;28;20204;-89
2022/03/26 01:22:39;;;;;;;32.63;19.10;;;6.00;55.40;;;;;;5020225;28;20203;-89
2022/03/26 01:25:07;;;;;;;29.30;19.53;;;6.20;55.00;;;;;;5012516;28;20203;-89
2022/03/26 01:27:34;;;;;;;32.87;19.27;;;6.30;51.80;;;;;;5016042;28;20226;-89
2022/03/26 01:30:01;;;;;;;30.93;17.93;;;6.10;54.40;;;;;;5015275;28;20207;-89
2022/03/26 01:32:28;;;;;;;30.60;18.07;;;6.30;55.80;;;;;;5014977;28;20222;-88
2022/03/26 01:34:57;;;;;;;26.93;17.67;;;6.50;54.90;;;;;;5005780;28;20216;-89
2022/03/26 01:37:25;;;;;;;27.23;17.57;;;6.70;54.00;;;;;;5017305;28;20203;-88
2022/03/26 01:39:52;;;;;;;26.07;17.77;;;6.80;52.40;;;;;;5016428;28;20215;-89
2022/03/26 01:42:19;;;;;;;28.87;18.73;;;6.90;52.20;;;;;;5014199;28;20204;-89
2022/03/26 01:44:47;;;;;;;28.23;19.30;;;6.90;49.80;;;;;;5014452;28;20219;-89
2022/03/26 01:47:14;;;;;;;28.17;18.20;;;6.60;51.20;;;;;;5023124;28;20350;-89
2022/03/26 01:49:41;;;;;;;31.93;20.10;;;6.40;54.20;;;;;;5020399;28;20286;-89
2022/03/26 01:52:10;;;;;;;27.63;18.90;;;6.50;51.60;;;;;;5016129;28;20234;-89
2022/03/26 01:54:39;;;;;;;28.67;18.57;;;6.40;54.20;;;;;;5008566;28;20231;-89
2022/03/26 01:57:15;;;;;;;31.30;17.83;;;6.40;53.80;;;;;;5014023;28;20295;-89
2022/03/26 01:59:43;;;;;;;27.17;17.90;;;6.50;53.90;;;;;;5014933;28;20228;-89
2022/03/26 02:02:10;;;;;;;28.03;17.83;;;6.50;53.80;;;;;;5017035;28;20214;-88
2022/03/26 02:04:38;;;;;;;27.27;17.67;;;6.60;53.60;;;;;;5012495;28;20261;-89
2022/03/26 02:07:06;;;;;;;32.20;18.63;;;6.70;52.10;;;;;;5017290;28;20293;-89
2022/03/26 02:09:35;;;;;;;28.57;18.83;;;6.80;52.80;;;;;;5009313;28;20226;-89
2022/03/26 02:12:04;;;;;;;41.67;23.17;;;6.70;51.20;;;;;;5011566;28;20203;-89
2022/03/26 02:14:32;;;;;;;32.40;20.33;;;6.50;51.10;;;;;;5015683;28;20234;-89
2022/03/26 02:16:59;;;;;;;31.47;20.33;;;6.40;52.00;;;;;;5015599;28;20210;-88
2022/03/26 02:19:27;;;;;;;29.10;19.17;;;6.30;53.70;;;;;;5011122;28;20227;-88
2022/03/26 02:21:55;;;;;;;33.10;20.43;;;6.20;53.80;;;;;;5002616;28;20195;-89
2022/03/26 02:24:22;;;;;;;29.80;18.93;;;6.00;54.30;;;;;;5011889;28;20254;-89
2022/03/26 02:26:50;;;;;;;29.57;19.10;;;6.10;57.60;;;;;;5020609;28;20286;-89
2022/03/26 02:29:17;;;;;;;32.60;20.70;;;6.30;56.10;;;;;;4996173;28;20770;-89
2022/03/26 02:31:44;;;;;;;35.37;21.73;;;6.20;53.70;;;;;;5019079;28;20196;-89
2022/03/26 02:34:13;;;;;;;35.57;20.80;;;6.00;55.00;;;;;;4995529;28;20227;-89
2022/03/26 02:36:41;;;;;;;32.10;20.50;;;6.10;57.20;;;;;;5010279;28;20654;-89
2022/03/26 02:39:14;;;;;;;35.97;20.03;;;6.30;56.00;;;;;;5015035;28;20222;-90
2022/03/26 02:41:41;;;;;;;29.77;19.47;;;6.50;54.90;;;;;;5015682;28;20203;-86
2022/03/26 02:44:09;;;;;;;34.83;21.93;;;6.60;54.10;;;;;;5017559;28;20222;-86
2022/03/26 02:46:38;;;;;;;33.20;21.00;;;6.30;53.20;;;;;;5015837;28;20290;-86
2022/03/26 02:49:05;;;;;;;31.77;20.97;;;6.30;56.50;;;;;;5006234;28;20230;-89
2022/03/26 02:51:34;;;;;;;36.40;22.97;;;6.40;55.20;;;;;;5012866;28;20226;-86
2022/03/26 02:54:01;;;;;;;32.93;21.97;;;6.40;53.20;;;;;;5023200;28;20241;-87
2022/03/26 02:56:29;;;;;;;38.27;20.93;;;5.90;54.40;;;;;;5019243;28;20266;-87
2022/03/26 02:58:57;;;;;;;31.13;20.53;;;5.50;56.50;;;;;;5019988;28;20229;-87
2022/03/26 03:04:05;;;;;;;30.00;18.00;;;5.60;61.20;;;;;;5007359;28;20238;-86
2022/03/26 03:06:32;;;;;;;27.23;18.33;;;5.90;58.60;;;;;;5017136;28;20203;-87
2022/03/26 03:09:00;;;;;;;25.23;17.77;;;5.90;57.60;;;;;;5023792;28;20227;-86
2022/03/26 03:11:29;;;;;;;30.40;17.53;;;6.10;57.00;;;;;;5017314;28;20293;-86
2022/03/26 03:13:57;;;;;;;23.90;16.97;;;6.20;56.90;;;;;;5018985;28;20227;-87
2022/03/26 03:16:24;;;;;;;30.23;18.07;;;6.20;56.20;;;;;;5015030;28;20228;-87
2022/03/26 03:18:52;;;;;;;27.33;17.83;;;6.20;55.90;;;;;;5010911;28;20230;-87
2022/03/26 03:21:19;;;;;;;28.27;18.40;;;6.20;56.10;;;;;;5019658;28;20199;-86
2022/03/26 03:23:47;;;;;;;34.73;18.77;;;6.20;55.70;;;;;;5014177;28;20223;-87
2022/03/26 03:26:15;;;;;;;31.97;17.67;;;6.10;55.00;;;;;;5018527;28;20246;-87
2022/03/26 03:28:44;;;;;;;32.03;18.90;;;6.00;58.40;;;;;;5018394;28;20223;-86
2022/03/26 03:31:12;;;;;;;29.37;18.43;;;6.00;56.50;;;;;;5017007;28;20509;-86
2022/03/26 03:33:42;;;;;;;29.80;18.50;;;6.00;56.90;;;;;;5013764;28;20262;-87
2022/03/26 03:36:09;;;;;;;32.73;18.57;;;5.90;57.40;;;;;;5010152;28;20664;-87
2022/03/26 03:38:36;;;;;;;35.37;20.47;;;5.70;56.90;;;;;;5016690;28;20242;-87
2022/03/26 03:41:03;;;;;;;29.70;18.40;;;5.30;57.90;;;;;;5005972;28;20311;-86
2022/03/26 03:43:30;;;;;;;30.33;16.97;;;5.10;60.90;;;;;;5016421;28;20231;-86
2022/03/26 03:45:59;;;;;;;27.83;16.87;;;5.30;60.60;;;;;;5022969;28;20230;-86
2022/03/26 03:48:27;;;;;;;24.93;17.07;;;5.40;58.00;;;;;;5019630;28;20305;-86
2022/03/26 03:50:55;;;;;;;22.93;15.67;;;5.20;59.50;;;;;;5017698;28;20221;-87
2022/03/26 03:53:22;;;;;;;23.90;15.40;;;5.30;59.40;;;;;;5017758;28;20242;-87
2022/03/26 03:55:49;;;;;;;23.00;15.67;;;5.30;58.40;;;;;;5021505;28;20233;-90
2022/03/26 03:58:16;;;;;;;24.17;14.90;;;5.50;58.30;;;;;;5006569;28;20232;-89
2022/03/26 04:00:43;;;;;;;24.97;15.33;;;5.40;57.30;;;;;;5007899;28;20203;-90
2022/03/26 04:03:12;;;;;;;23.40;15.03;;;5.40;58.10;;;;;;5010910;28;20239;-89
2022/03/26 04:05:40;;;;;;;24.43;15.67;;;5.30;56.00;;;;;;5014176;28;20666;-90
2022/03/26 04:08:08;;;;;;;26.27;15.90;;;4.80;56.70;;;;;;4991531;28;20253;-90
2022/03/26 04:10:36;;;;;;;24.17;15.77;;;4.30;60.80;;;;;;5010659;28;20210;-89
2022/03/26 04:13:03;;;;;;;27.57;16.00;;;4.50;64.60;;;;;;5011290;28;20237;-89
2022/03/26 04:15:30;;;;;;;22.67;15.27;;;4.60;65.00;;;;;;5015330;28;20294;-89
2022/03/26 04:17:58;;;;;;;21.40;15.17;;;4.80;64.60;;;;;;5004825;28;20296;-89
2022/03/26 04:20:27;;;;;;;21.00;14.63;;;5.00;63.00;;;;;;5002724;28;20234;-89
2022/03/26 04:22:54;;;;;;;26.20;16.80;;;4.90;59.20;;;;;;5014471;28;20203;-89
2022/03/26 04:25:21;;;;;;;21.03;15.70;;;4.50;60.00;;;;;;5009753;28;20231;-89
2022/03/26 04:27:49;;;;;;;26.10;17.53;;;4.20;64.10;;;;;;5011513;28;20709;-90
2022/03/26 04:30:17;;;;;;;25.93;16.47;;;4.00;68.70;;;;;;5019915;28;20212;-88
2022/03/26 04:32:44;;;;;;;24.07;16.47;;;4.20;68.90;;;;;;5010018;28;20295;-89
2022/03/26 04:35:12;;;;;;;24.07;16.50;;;4.60;67.60;;;;;;5011222;28;20600;-89
2022/03/26 04:37:41;;;;;;;26.87;16.67;;;4.90;62.70;;;;;;5013101;28;20213;-89
2022/03/26 04:40:11;;;;;;;24.77;16.17;;;5.10;61.20;;;;;;5015871;28;20208;-89
2022/03/26 04:42:39;;;;;;;24.83;16.27;;;4.90;59.00;;;;;;5021824;28;20227;-89
2022/03/26 04:45:09;;;;;;;26.67;16.50;;;4.80;62.70;;;;;;5025901;28;20214;-88
2022/03/26 04:47:37;;;;;;;23.77;16.20;;;4.90;61.60;;;;;;5017676;28;20196;-88
2022/03/26 04:50:04;;;;;;;26.27;16.57;;;5.00;61.20;;;;;;5017162;28;20213;-88
2022/03/26 04:52:32;;;;;;;29.80;17.70;;;4.70;58.00;;;;;;5016958;28;20215;-88
2022/03/26 04:55:01;;;;;;;26.70;17.07;;;4.20;61.40;;;;;;5021181;28;20458;-88
2022/03/26 04:57:28;;;;;;;27.40;17.17;;;4.30;69.00;;;;;;5017520;28;20645;-88
2022/03/26 04:59:57;;;;;;;23.03;16.03;;;4.60;67.20;;;;;;5012149;28;20255;-88
2022/03/26 05:02:24;;;;;;;26.53;15.73;;;4.70;64.40;;;;;;5026135;28;20199;-89
2022/03/26 05:04:52;;;;;;;21.50;14.83;;;4.70;63.80;;;;;;5017155;28;20227;-89
2022/03/26 05:10:05;;;;;;;27.70;17.70;;;4.60;60.60;;;;;;5016822;28;20254;-89
2022/03/26 05:12:33;;;;;;;27.43;17.57;;;4.10;62.70;;;;;;5015053;28;20208;-88
2022/03/26 05:15:00;;;;;;;29.20;16.30;;;3.80;68.50;;;;;;5008528;28;20227;-88
2022/03/26 05:17:30;;;;;;;22.80;16.33;;;4.10;68.90;;;;;;5020135;28;20213;-88
2022/03/26 05:19:57;;;;;;;25.23;15.50;;;4.40;69.10;;;;;;5017929;28;20234;-88
2022/03/26 05:22:25;;;;;;;23.13;15.67;;;4.40;69.10;;;;;;5012234;28;20212;-88
2022/03/26 05:24:53;;;;;;;25.67;15.67;;;4.60;66.40;;;;;;5004247;28;20302;-88
2022/03/26 05:30:03;;;;;;;25.33;16.60;;;4.30;63.50;;;;;;5016930;28;20216;-88
2022/03/26 05:32:30;;;;;;;22.90;15.17;;;4.10;68.10;;;;;;5025407;28;20257;-88
2022/03/26 05:34:57;;;;;;;27.40;16.33;;;4.40;69.10;;;;;;5019853;28;20290;-88
2022/03/26 05:37:25;;;;;;;24.50;15.77;;;4.70;67.00;;;;;;5022047;28;20212;-88
2022/03/26 05:39:52;;;;;;;25.60;16.70;;;4.80;64.30;;;;;;5021610;28;20246;-88
2022/03/26 05:42:22;;;;;;;25.17;16.50;;;4.80;63.90;;;;;;5022310;28;20211;-89
2022/03/26 05:44:49;;;;;;;26.40;16.70;;;4.90;64.90;;;;;;5031467;28;20278;-88
2022/03/26 05:47:18;;;;;;;25.37;15.77;;;4.80;61.90;;;;;;5016297;28;20234;-90
2022/03/26 05:49:46;;;;;;;22.67;15.37;;;4.80;65.40;;;;;;5022929;28;20219;-88
2022/03/26 05:52:13;;;;;;;20.63;14.53;;;5.00;63.00;;;;;;5023211;28;20214;-87
2022/03/26 05:54:40;;;;;;;23.37;16.50;;;5.20;61.50;;;;;;5014682;28;20241;-88
2022/03/26 05:57:07;;;;;;;23.80;15.77;;;5.10;60.00;;;;;;4996184;28;20864;-88
2022/03/26 06:02:17;;;;;;;22.40;15.23;;;5.40;59.60;;;;;;5018425;28;20191;-86
2022/03/26 06:04:47;;;;;;;22.70;15.43;;;5.60;59.20;;;;;;5019529;28;20239;-85
2022/03/26 06:07:15;;;;;;;28.03;17.37;;;5.70;57.80;;;;;;5026935;28;20215;-86
2022/03/26 06:09:42;;;;;;;25.10;16.90;;;5.70;55.90;;;;;;5018253;28;20302;-86
2022/03/26 06:12:10;;;;;;;25.23;17.83;;;5.40;55.70;;;;;;5014350;28;20235;-86
2022/03/26 06:14:38;;;;;;;24.30;17.23;;;5.10;56.80;;;;;;5019424;28;20223;-85
2022/03/26 06:17:06;;;;;;;25.27;16.23;;;5.20;59.80;;;;;;5022966;28;20203;-86
2022/03/26 06:19:33;;;;;;;25.53;16.80;;;5.50;59.90;;;;;;5019953;28;20661;-86
2022/03/26 06:22:01;;;;;;;28.20;17.43;;;5.80;57.30;;;;;;5026577;28;20258;-88
2022/03/26 06:24:28;;;;;;;26.13;16.47;;;6.00;54.40;;;;;;5033960;28;20290;-88
2022/03/26 06:26:55;;;;;;;25.60;18.27;;;6.00;56.90;;;;;;5020912;28;20662;-88
2022/03/26 06:29:23;;;;;;;29.37;16.53;;;5.90;55.60;;;;;;5024372;28;20225;-89
2022/03/26 06:31:52;;;;;;;25.37;17.13;;;6.00;58.20;;;;;;5020684;28;20292;-87
2022/03/26 06:34:24;;;;;;;25.77;16.77;;;6.30;56.80;;;;;;5025099;28;20318;-87
2022/03/26 06:36:51;;;;;;;26.00;17.27;;;6.90;53.90;;;;;;5009453;28;20270;-90
2022/03/26 06:39:18;;;;;;;22.67;16.40;;;7.70;46.50;;;;;;5015103;28;20294;-90
2022/03/26 06:41:47;;;;;;;27.30;17.07;;;8.50;47.20;;;;;;5019724;28;20250;-90
2022/03/26 06:44:14;;;;;;;24.65;16.38;;;9.20;40.30;;;;;;5022742;28;20229;-90
2022/03/26 06:46:42;;;;;;;28.35;16.27;;;9.90;37.00;;;;;;5020876;28;20226;-90
2022/03/26 06:51:53;;;;;;;28.05;20.00;;;10.90;31.20;;;;;;5026336;28;20207;-90
2022/03/26 06:54:21;;;;;;;26.75;19.88;;;11.30;27.50;;;;;;5023155;28;20231;-89
2022/03/26 06:56:50;;;;;;;27.13;20.85;;;11.40;26.90;;;;;;5023684;28;20291;-90
2022/03/26 06:59:23;;;;;;;28.48;20.25;;;11.50;26.30;;;;;;5022326;28;20738;-90
2022/03/26 07:02:17;;;;;;;32.80;22.92;;;11.60;25.90;;;;;;5016237;28;20246;-90
2022/03/26 07:14:36;;;;;;;35.95;23.35;;;10.80;24.40;;;;;;5000748;28;20235;-89
2022/03/26 07:19:45;;;;;;;37.55;24.15;;;9.90;29.20;;;;;;5008087;28;20214;-89
2022/03/26 07:22:13;;;;;;;35.85;25.50;;;10.30;27.30;;;;;;5001262;28;20210;-89
2022/03/26 07:30:18;;;;;;;34.90;24.52;;;10.60;26.50;;;;;;5014066;28;20229;-89
2022/03/26 07:32:45;;;;;;;37.47;25.40;;;10.50;26.60;;;;;;5009852;28;20258;-89
2022/03/26 07:35:14;;;;;;;38.03;25.92;;;10.30;27.80;;;;;;5020725;28;20246;-90
2022/03/26 07:37:43;;;;;;;36.10;25.40;;;10.30;28.00;;;;;;5019328;28;20234;-89
2022/03/26 07:40:34;;;;;;;41.85;25.67;;;10.40;27.00;;;;;;5019589;28;20211;-90
2022/03/26 07:43:04;;;;;;;38.88;26.20;;;10.50;27.40;;;;;;5014448;28;20255;-91
2022/03/26 07:45:32;;;;;;;40.25;26.38;;;10.40;27.00;;;;;;5014837;28;20222;-90
2022/03/26 07:48:48;;;;;;;37.22;26.02;;;10.70;29.20;;;;;;5027293;28;20266;-90
2022/03/26 09:16:17;;;;;;;36.22;27.52;;;15.70;16.50;;;;;;4786252;29;20241;-91
2022/03/26 09:19:04;;;;;;;39.40;28.35;;;17.30;15.40;;;;;;4863918;29;20240;-90
2022/03/26 09:21:31;;;;;;;34.83;28.95;;;18.80;12.70;;;;;;4963659;28;20300;-91
2022/03/26 09:23:59;;;;;;;40.42;29.73;;;19.40;11.90;;;;;;4961147;28;20227;-91
2022/03/26 09:26:26;;;;;;;37.50;29.73;;;18.60;11.50;;;;;;4954576;28;20275;-90
2022/03/26 09:28:53;;;;;;;38.70;31.13;;;19.60;12.60;;;;;;4992306;28;20293;-87
2022/03/26 09:31:22;;;;;;;36.90;30.38;;;20.90;11.50;;;;;;5001871;28;20243;-86
2022/03/26 09:33:50;;;;;;;36.22;30.27;;;21.90;9.20;;;;;;5001657;28;20230;-87
2022/03/26 09:36:16;;;;;;;39.90;30.77;;;22.90;8.30;;;;;;5004008;28;20207;-85
2022/03/26 09:38:43;;;;;;;34.45;29.52;;;23.30;8.00;;;;;;5003616;28;20249;-85
2022/03/26 09:41:12;;;;;;;36.08;30.00;;;23.60;7.50;;;;;;5003284;28;20230;-86
2022/03/26 09:43:40;;;;;;;40.03;32.15;;;24.70;6.40;;;;;;5004263;28;20257;-86
2022/03/26 09:46:08;;;;;;;38.63;30.98;;;24.90;6.10;;;;;;5000088;28;20199;-85
2022/03/26 09:48:38;;;;;;;37.38;31.10;;;25.40;4.90;;;;;;5001704;28;20234;-85
2022/03/26 09:51:06;;;;;;;35.58;31.67;;;26.00;5.30;;;;;;5004478;28;20214;-85
2022/03/26 09:53:35;;;;;;;35.17;31.38;;;25.90;5.00;;;;;;5005549;28;20698;-85
2022/03/26 09:56:02;;;;;;;34.80;31.05;;;25.40;4.80;;;;;;5006613;28;20788;-85
2022/03/26 09:58:29;;;;;;;36.17;30.98;;;25.30;5.20;;;;;;5003875;28;20230;-85
2022/03/26 10:00:57;;;;;;;34.00;30.27;;;25.10;5.00;;;;;;5002172;28;20205;-85
2022/03/26 10:03:24;;;;;;;36.00;31.92;;;24.00;6.70;;;;;;5006127;28;20798;-85
2022/03/26 10:06:02;;;;;;;36.30;32.40;;;24.10;6.50;;;;;;5003617;28;20215;-85
2022/03/26 10:08:31;;;;;;;38.75;33.08;;;24.90;5.60;;;;;;5002053;28;20230;-85
2022/03/26 10:10:58;;;;;;;40.50;32.83;;;24.20;6.00;;;;;;4999388;28;20196;-85
2022/03/26 10:13:44;;;;;;;39.08;32.50;;;24.60;6.30;;;;;;5001401;28;20749;-89
2022/03/26 10:16:12;;;;;;;37.58;32.30;;;24.80;5.40;;;;;;4999044;28;20349;-85
2022/03/26 10:21:23;;;;;;;38.65;32.70;;;24.40;6.20;;;;;;5018278;28;20229;-85
2022/03/26 10:23:54;;;;;;;36.83;32.65;;;23.70;7.00;;;;;;5029235;28;20221;-87
2022/03/26 10:26:23;;;;;;;37.53;33.25;;;24.60;6.10;;;;;;5018113;28;20206;-87
2022/03/26 10:28:52;;;;;;;37.50;32.72;;;24.70;5.90;;;;;;5007432;28;20309;-86
2022/03/26 10:34:10;;;;;;;38.05;32.20;;;24.50;6.10;;;;;;5019015;28;21065;-87
2022/03/26 10:36:43;;;;;;;38.15;32.50;;;24.20;6.50;;;;;;5036977;28;20268;-86
2022/03/26 10:39:25;;;;;;;38.95;32.45;;;24.90;5.60;;;;;;5038297;28;20309;-86
2022/03/26 10:41:53;;;;;;;39.70;32.75;;;24.20;6.70;;;;;;5026379;28;20646;-86
2022/03/26 10:44:26;;;;;;;42.15;32.85;;;24.20;6.30;;;;;;5020861;28;20724;-86
2022/03/26 10:46:55;;;;;;;38.58;31.45;;;23.70;7.30;;;;;;5014640;28;20198;-86
2022/03/26 10:49:27;;;;;;;35.33;31.35;;;24.30;6.90;;;;;;5022150;28;20218;-86
2022/03/26 10:51:58;;;;;;;39.00;31.23;;;23.50;6.90;;;;;;5019758;28;20199;-87
2022/03/26 10:54:34;;;;;;;40.53;30.70;;;22.70;7.60;;;;;;5017598;28;20277;-88
2022/03/26 10:57:04;;;;;;;40.45;29.80;;;23.00;6.90;;;;;;5016719;28;20212;-88
2022/03/26 10:59:37;;;;;;;35.65;30.35;;;22.80;8.60;;;;;;5019874;28;20872;-88
2022/03/26 11:02:05;;;;;;;39.03;30.10;;;22.90;8.30;;;;;;5020231;28;20298;-89
2022/03/26 11:04:33;;;;;;;35.30;29.33;;;23.40;6.70;;;;;;5012111;28;20221;-91
2022/03/26 11:07:03;;;;;;;38.35;29.73;;;23.50;5.90;;;;;;5023883;28;20198;-94
2022/03/26 11:09:31;;;;;;;36.63;29.23;;;23.60;6.20;;;;;;5021412;28;20237;-88
2022/03/26 11:11:59;;;;;;;35.70;28.40;;;23.20;6.70;;;;;;5023824;28;20595;-89
2022/03/26 16:37:49;;;;;;;27.08;17.10;;;16.20;8.50;;;;;;4792043;30;20215;-91
2022/03/26 17:51:39;;;;;;;30.95;18.25;;;14.00;13.70;;;;;;4947570;29;20202;-85
2022/03/26 17:54:06;;;;;;;28.77;18.60;;;14.00;13.80;;;;;;4943004;29;20221;-85
2022/03/26 17:56:38;;;;;;;27.95;19.50;;;13.80;13.90;;;;;;4950481;29;20228;-86
2022/03/26 18:02:35;;;;;;;31.08;18.42;;;13.60;14.30;;;;;;4946930;29;20359;-85
2022/03/26 18:05:03;;;;;;;29.38;18.77;;;13.50;14.50;;;;;;4953174;29;20225;-86
2022/03/26 18:08:09;;;;;;;26.50;18.67;;;13.50;14.60;;;;;;4919854;29;20238;-87
2022/03/26 18:13:34;;;;;;;28.95;18.83;;;13.20;15.00;;;;;;4952139;29;20234;-86
2022/03/26 18:16:14;;;;;;;31.27;18.73;;;13.10;15.40;;;;;;4937528;29;20249;-86
2022/03/26 18:18:49;;;;;;;30.75;19.67;;;13.00;15.60;;;;;;4946219;29;20260;-86
2022/03/26 18:21:19;;;;;;;29.92;19.00;;;13.00;15.80;;;;;;4931087;29;20205;-86
2022/03/26 18:23:47;;;;;;;30.73;19.15;;;12.90;15.70;;;;;;4951774;29;20238;-87
2022/03/26 18:26:54;;;;;;;28.70;19.20;;;12.90;15.70;;;;;;4947236;29;20222;-88
2022/03/26 18:29:42;;;;;;;32.40;18.83;;;12.80;15.90;;;;;;4941034;29;20257;-87
2022/03/26 18:41:40;;;;;;;33.50;18.95;;;12.60;16.20;;;;;;4943892;29;20274;-88
2022/03/26 18:49:59;;;;;;;31.15;20.23;;;12.10;19.40;;;;;;4944877;29;20201;-86
2022/03/26 18:52:45;;;;;;;29.70;19.80;;;12.00;18.40;;;;;;4952699;29;20220;-87
2022/03/26 18:55:16;;;;;;;31.48;19.98;;;11.90;17.80;;;;;;4923058;29;20294;-86
2022/03/26 18:57:47;;;;;;;31.00;19.73;;;12.00;17.10;;;;;;4926885;29;20203;-86
2022/03/26 19:03:24;;;;;;;35.10;18.60;;;12.00;17.10;;;;;;4910550;29;20235;-85
2022/03/26 19:05:53;;;;;;;30.20;19.30;;;12.00;18.50;;;;;;4901446;29;20233;-85
2022/03/26 19:08:20;;;;;;;33.95;19.58;;;11.90;17.40;;;;;;4946608;29;20222;-86
2022/03/26 19:10:54;;;;;;;29.25;19.33;;;11.90;17.40;;;;;;4946187;29;20689;-86
2022/03/26 19:13:21;;;;;;;37.20;19.50;;;11.80;17.20;;;;;;4946710;29;20242;-85
2022/03/26 19:15:52;;;;;;;29.83;19.38;;;11.70;17.50;;;;;;4941679;29;20246;-85
2022/03/26 19:18:22;;;;;;;37.28;20.33;;;11.70;18.80;;;;;;4931213;29;20236;-87
2022/03/26 19:20:55;;;;;;;32.63;19.65;;;11.60;18.60;;;;;;4944192;29;20201;-86
2022/03/26 19:23:26;;;;;;;30.27;20.35;;;11.50;18.80;;;;;;4946175;29;20244;-86
2022/03/26 19:26:06;;;;;;;30.70;20.45;;;11.30;18.80;;;;;;4941356;29;20237;-85
2022/03/26 19:31:23;;;;;;;29.73;19.20;;;11.20;20.80;;;;;;4948545;29;20328;-85
2022/03/26 19:33:52;;;;;;;28.27;19.70;;;11.10;20.90;;;;;;4945578;29;20221;-86
2022/03/26 19:36:20;;;;;;;57.85;41.63;;;11.10;20.60;;;;;;4946513;29;20234;-87
2022/03/26 19:38:52;;;;;;;196.80;143.43;;;11.00;21.90;;;;;;4948738;29;20222;-86
2022/03/26 19:41:39;;;;;;;42.13;24.05;;;11.10;22.80;;;;;;4917480;29;20214;-86
2022/03/26 19:44:07;;;;;;;58.10;36.78;;;11.00;20.10;;;;;;4915557;29;20297;-86
2022/03/26 19:46:53;;;;;;;52.17;33.63;;;10.90;22.20;;;;;;4938493;29;20205;-85
2022/03/26 19:49:21;;;;;;;51.35;34.08;;;10.90;23.60;;;;;;4939449;29;20249;-87
2022/03/26 19:51:52;;;;;;;37.88;21.40;;;10.90;24.40;;;;;;4927652;29;20229;-86
2022/03/26 19:57:42;;;;;;;39.80;26.00;;;10.70;23.30;;;;;;4942235;29;20233;-87
2022/03/26 20:00:11;;;;;;;59.00;35.88;;;10.80;23.90;;;;;;4909801;29;20238;-86
2022/03/26 20:02:47;;;;;;;145.98;102.55;;;10.80;22.90;;;;;;4948493;29;20190;-86
2022/03/26 20:05:15;;;;;;;490.60;370.38;;;10.80;24.00;;;;;;4938095;29;20331;-87
2022/03/26 20:07:44;;;;;;;118.10;70.75;;;10.70;24.20;;;;;;4912945;29;20226;-88
2022/03/26 20:10:14;;;;;;;66.82;35.80;;;10.70;24.10;;;;;;4940976;29;20222;-86
2022/03/26 20:12:49;;;;;;;50.58;26.85;;;10.50;24.10;;;;;;4944095;29;20210;-86
2022/03/26 20:15:33;;;;;;;33.38;20.00;;;10.40;24.10;;;;;;4947213;29;20264;-86
2022/03/26 20:20:46;;;;;;;37.25;23.08;;;10.20;21.70;;;;;;4945666;29;20213;-86
2022/03/26 20:23:21;;;;;;;42.63;21.60;;;10.20;22.20;;;;;;4948900;29;20262;-86
2022/03/26 20:26:01;;;;;;;42.83;22.15;;;10.20;22.30;;;;;;4948893;29;20327;-87
2022/03/26 20:28:35;;;;;;;35.25;21.63;;;10.20;23.80;;;;;;4946381;29;20596;-86
2022/03/26 20:31:05;;;;;;;32.67;20.63;;;10.10;23.70;;;;;;4941812;29;20300;-86
2022/03/26 20:33:34;;;;;;;38.20;20.85;;;9.90;25.00;;;;;;4943939;29;20238;-86
2022/03/26 20:36:03;;;;;;;40.35;21.33;;;9.80;25.10;;;;;;4947803;29;20285;-86
2022/03/26 20:38:33;;;;;;;37.90;21.13;;;9.70;25.40;;;;;;4934021;29;20701;-86
2022/03/26 20:41:07;;;;;;;34.05;20.80;;;9.60;24.80;;;;;;4943524;29;20202;-86
2022/03/26 20:43:42;;;;;;;39.47;21.42;;;9.40;24.60;;;;;;4940524;29;20225;-86
2022/03/26 20:46:12;;;;;;;42.33;22.98;;;9.40;24.60;;;;;;4950485;29;20639;-86
2022/03/26 20:48:41;;;;;;;39.42;21.00;;;9.40;24.60;;;;;;4951493;29;20297;-87
2022/03/26 20:51:10;;;;;;;41.92;22.02;;;9.40;24.60;;;;;;4948493;29;20273;-87
2022/03/26 20:57:06;;;;;;;41.15;22.60;;;9.30;26.20;;;;;;4948901;29;20229;-87
2022/03/26 21:05:55;;;;;;;42.47;21.58;;;9.20;28.10;;;;;;4947343;29;20230;-88
2022/03/26 21:08:44;;;;;;;37.75;23.55;;;9.20;29.20;;;;;;4937365;29;20225;-86
2022/03/26 21:11:15;;;;;;;41.33;23.63;;;9.10;29.60;;;;;;4939285;29;20207;-87
2022/03/26 21:16:27;;;;;;;42.78;22.15;;;9.00;29.30;;;;;;4939186;29;20225;-87
2022/03/26 21:18:55;;;;;;;37.65;23.30;;;9.00;28.70;;;;;;4932311;29;20672;-86
2022/03/26 21:21:29;;;;;;;44.85;25.17;;;9.00;27.70;;;;;;4923527;29;20210;-86
2022/03/26 21:23:57;;;;;;;47.40;24.30;;;8.90;27.80;;;;;;4941613;29;20225;-87
2022/03/26 21:26:25;;;;;;;41.83;24.58;;;8.80;28.60;;;;;;4942701;29;20214;-86
2022/03/26 21:28:54;;;;;;;45.45;25.88;;;8.70;28.70;;;;;;4937036;29;20328;-86
2022/03/26 21:31:22;;;;;;;43.92;26.63;;;8.70;29.30;;;;;;4945584;29;20224;-86
2022/03/26 21:33:58;;;;;;;44.90;27.20;;;8.70;29.50;;;;;;4940078;29;20225;-86
2022/03/26 21:36:30;;;;;;;45.83;27.42;;;8.70;29.80;;;;;;4921038;29;20230;-89
2022/03/26 21:38:57;;;;;;;46.60;27.27;;;8.60;30.70;;;;;;4943939;29;20225;-86
2022/03/26 21:41:27;;;;;;;48.83;26.23;;;8.50;30.40;;;;;;4938578;29;20233;-86
2022/03/26 21:43:55;;;;;;;45.10;26.10;;;8.40;31.00;;;;;;4939887;29;20222;-86
2022/03/26 21:46:22;;;;;;;48.72;27.05;;;8.30;30.40;;;;;;4926290;29;20211;-86
2022/03/26 21:48:49;;;;;;;46.22;27.45;;;8.30;31.30;;;;;;4918086;29;20229;-87
2022/03/26 21:51:17;;;;;;;41.40;26.48;;;8.30;31.70;;;;;;4943612;29;20202;-86
2022/03/26 21:53:45;;;;;;;45.35;28.17;;;8.40;32.10;;;;;;4935800;29;20226;-86
2022/03/26 21:56:12;;;;;;;44.38;27.00;;;8.40;32.20;;;;;;4936439;29;20253;-85
2022/03/26 21:58:42;;;;;;;40.80;24.73;;;8.30;32.30;;;;;;4944963;29;20272;-87
2022/03/26 22:01:10;;;;;;;44.23;24.67;;;8.20;33.10;;;;;;4944509;29;20222;-87
2022/03/26 22:03:38;;;;;;;46.10;25.23;;;8.20;32.40;;;;;;4943173;29;20803;-87
2022/03/26 22:06:06;;;;;;;44.67;24.98;;;8.10;33.40;;;;;;4944269;29;20205;-86
2022/03/26 22:08:35;;;;;;;43.27;26.63;;;8.10;34.50;;;;;;4929229;29;20747;-86
2022/03/26 22:11:03;;;;;;;54.95;30.65;;;8.00;33.60;;;;;;4934462;29;20205;-86